sensor_id;sensor_type;location;lat;lon;timestamp;P1;durP1;ratioP1;P2;durP2;ratioP2
78443;SDS011;67739;52.986;8.894;2023-02-26T09:36:09;2.03;;;0.45;;
78443;SDS011;67739;52.986;8.894;2023-02-26T09:38:34;1.08;;;0.13;;
78443;SDS011;67739;52.986;8.894;2023-02-26T09:43:53;3.08;;;0.30;;
78443;SDS011;67739;52.986;8.894;2023-02-26T09:52:11;2.90;;;0.77;;
78443;SDS011;67739;52.986;8.894;2023-02-26T09:54:52;7.28;;;0.40;;
78443;SDS011;67739;52.986;8.894;2023-02-26T09:57:28;5.32;;;0.40;;
78443;SDS011;67739;52.986;8.894;2023-02-26T10:00:06;4.55;;;0.30;;
78443;SDS011;67739;52.986;8.894;2023-02-26T10:05:22;3.30;;;0.32;;
78443;SDS011;67739;52.986;8.894;2023-02-26T10:08:07;2.90;;;0.43;;
78443;SDS011;67739;52.986;8.894;2023-02-26T10:13:32;1.90;;;0.40;;
78443;SDS011;67739;52.986;8.894;2023-02-26T10:16:12;2.53;;;0.20;;
78443;SDS011;67739;52.986;8.894;2023-02-26T10:18:43;2.22;;;0.28;;
78443;SDS011;67739;52.986;8.894;2023-02-26T10:21:14;4.50;;;0.32;;
78443;SDS011;67739;52.986;8.894;2023-02-26T10:23:45;0.95;;;0.20;;
78443;SDS011;67739;52.986;8.894;2023-02-26T10:34:19;3.58;;;0.40;;
78443;SDS011;67739;52.986;8.894;2023-02-26T10:39:23;1.85;;;0.30;;
78443;SDS011;67739;52.986;8.894;2023-02-26T10:42:05;4.20;;;0.30;;
78443;SDS011;67739;52.986;8.894;2023-02-26T10:44:40;2.17;;;0.10;;
78443;SDS011;67739;52.986;8.894;2023-02-26T10:50:10;4.32;;;1.25;;
78443;SDS011;67739;52.986;8.894;2023-02-26T10:52:38;1.88;;;0.22;;
78443;SDS011;67739;52.986;8.894;2023-02-26T10:58:12;0.57;;;0.08;;
78443;SDS011;67739;52.986;8.894;2023-02-26T11:00:41;2.05;;;0.13;;
78443;SDS011;67739;52.986;8.894;2023-02-26T11:03:10;1.08;;;0.10;;
78443;SDS011;67739;52.986;8.894;2023-02-26T11:05:41;0.65;;;0.00;;
78443;SDS011;67739;52.986;8.894;2023-02-26T11:10:50;2.47;;;0.17;;
78443;SDS011;67739;52.986;8.894;2023-02-26T11:13:18;1.45;;;0.95;;
78443;SDS011;67739;52.986;8.894;2023-02-26T11:15:46;0.60;;;0.00;;
78443;SDS011;67739;52.986;8.894;2023-02-26T11:18:16;1.00;;;0.10;;
78443;SDS011;67739;52.986;8.894;2023-02-26T11:20:46;2.97;;;0.30;;
78443;SDS011;67739;52.986;8.894;2023-02-26T11:23:15;2.88;;;0.25;;
78443;SDS011;67739;52.986;8.894;2023-02-26T11:25:44;1.00;;;0.45;;
78443;SDS011;67739;52.986;8.894;2023-02-26T11:28:30;1.08;;;0.03;;
78443;SDS011;67739;52.986;8.894;2023-02-26T11:31:01;1.48;;;0.30;;
78443;SDS011;67739;52.986;8.894;2023-02-26T11:33:37;0.63;;;0.00;;
78443;SDS011;67739;52.986;8.894;2023-02-26T11:36:07;1.98;;;0.17;;
78443;SDS011;67739;52.986;8.894;2023-02-26T11:38:37;1.05;;;0.08;;
78443;SDS011;67739;52.986;8.894;2023-02-26T11:41:04;1.70;;;0.20;;
78443;SDS011;67739;52.986;8.894;2023-02-26T11:43:38;1.17;;;0.20;;
78443;SDS011;67739;52.986;8.894;2023-02-26T11:46:06;1.83;;;0.20;;
78443;SDS011;67739;52.986;8.894;2023-02-26T11:48:44;1.27;;;0.20;;
78443;SDS011;67739;52.986;8.894;2023-02-26T11:56:46;0.70;;;0.20;;
78443;SDS011;67739;52.986;8.894;2023-02-26T11:59:21;3.22;;;0.43;;
78443;SDS011;67739;52.986;8.894;2023-02-26T12:01:49;1.50;;;0.10;;
78443;SDS011;67739;52.986;8.894;2023-02-26T12:04:20;1.25;;;0.20;;
78443;SDS011;67739;52.986;8.894;2023-02-26T12:06:48;2.03;;;0.75;;
78443;SDS011;67739;52.986;8.894;2023-02-26T12:09:16;0.85;;;0.05;;
78443;SDS011;67739;52.986;8.894;2023-02-26T12:11:47;0.80;;;0.10;;
78443;SDS011;67739;52.986;8.894;2023-02-26T12:30:44;1.65;;;0.10;;
78443;SDS011;67739;52.986;8.894;2023-02-26T12:43:50;0.98;;;0.10;;
78443;SDS011;67739;52.986;8.894;2023-02-26T12:54:34;1.48;;;0.10;;
78443;SDS011;67739;52.986;8.894;2023-02-26T12:57:05;1.48;;;0.10;;
78443;SDS011;67739;52.986;8.894;2023-02-26T13:00:10;2.63;;;0.00;;
78443;SDS011;67739;52.986;8.894;2023-02-26T13:08:35;9.20;;;2.35;;
78443;SDS011;67739;52.986;8.894;2023-02-26T13:14:07;6.50;;;1.38;;
78443;SDS011;67739;52.986;8.894;2023-02-26T13:16:54;9.35;;;1.60;;
78443;SDS011;67739;52.986;8.894;2023-02-26T13:19:38;3.42;;;0.60;;
78443;SDS011;67739;52.986;8.894;2023-02-26T13:24:40;14.50;;;4.18;;
78443;SDS011;67739;52.986;8.894;2023-02-26T13:27:10;3.42;;;0.40;;
78443;SDS011;67739;52.986;8.894;2023-02-26T13:29:40;15.85;;;3.25;;
78443;SDS011;67739;52.986;8.894;2023-02-26T13:32:16;31.15;;;8.68;;
78443;SDS011;67739;52.986;8.894;2023-02-26T13:34:52;22.35;;;5.28;;
78443;SDS011;67739;52.986;8.894;2023-02-26T13:39:54;4.72;;;0.80;;
78443;SDS011;67739;52.986;8.894;2023-02-26T13:50:44;3.25;;;0.40;;
78443;SDS011;67739;52.986;8.894;2023-02-26T13:55:48;1.15;;;0.20;;
78443;SDS011;67739;52.986;8.894;2023-02-26T14:00:55;2.83;;;0.10;;
78443;SDS011;67739;52.986;8.894;2023-02-26T14:03:32;1.23;;;0.13;;
78443;SDS011;67739;52.986;8.894;2023-02-26T14:08:46;2.83;;;0.85;;
78443;SDS011;67739;52.986;8.894;2023-02-26T14:11:59;0.38;;;0.22;;
78443;SDS011;67739;52.986;8.894;2023-02-26T14:14:11;2.38;;;0.57;;
78443;SDS011;67739;52.986;8.894;2023-02-26T14:16:42;2.90;;;0.22;;
78443;SDS011;67739;52.986;8.894;2023-02-26T14:19:25;1.60;;;0.10;;
78443;SDS011;67739;52.986;8.894;2023-02-26T14:24:36;1.30;;;0.15;;
78443;SDS011;67739;52.986;8.894;2023-02-26T14:27:46;1.42;;;0.30;;
78443;SDS011;67739;52.986;8.894;2023-02-26T14:30:04;0.20;;;0.00;;
78443;SDS011;67739;52.986;8.894;2023-02-26T14:35:09;1.92;;;0.30;;
78443;SDS011;67739;52.986;8.894;2023-02-26T14:37:37;4.55;;;0.20;;
78443;SDS011;67739;52.986;8.894;2023-02-26T14:40:05;0.93;;;0.20;;
78443;SDS011;67739;52.986;8.894;2023-02-26T14:42:42;1.45;;;0.10;;
78443;SDS011;67739;52.986;8.894;2023-02-26T14:45:57;1.40;;;0.10;;
78443;SDS011;67739;52.986;8.894;2023-02-26T14:48:03;0.45;;;0.10;;
78443;SDS011;67739;52.986;8.894;2023-02-26T14:50:43;2.53;;;0.45;;
78443;SDS011;67739;52.986;8.894;2023-02-26T14:59:14;0.28;;;0.08;;
78443;SDS011;67739;52.986;8.894;2023-02-26T15:07:17;1.50;;;0.10;;
78443;SDS011;67739;52.986;8.894;2023-02-26T15:24:11;2.70;;;0.60;;
78443;SDS011;67739;52.986;8.894;2023-02-26T15:26:45;3.22;;;0.20;;
78443;SDS011;67739;52.986;8.894;2023-02-26T15:29:15;1.27;;;0.30;;
78443;SDS011;67739;52.986;8.894;2023-02-26T15:34:13;4.22;;;0.52;;
78443;SDS011;67739;52.986;8.894;2023-02-26T15:36:43;3.08;;;0.30;;
78443;SDS011;67739;52.986;8.894;2023-02-26T15:39:11;1.90;;;0.22;;
78443;SDS011;67739;52.986;8.894;2023-02-26T15:41:39;2.00;;;0.30;;
78443;SDS011;67739;52.986;8.894;2023-02-26T15:44:06;4.65;;;0.98;;
78443;SDS011;67739;52.986;8.894;2023-02-26T15:46:38;2.78;;;0.60;;
78443;SDS011;67739;52.986;8.894;2023-02-26T15:49:16;2.20;;;0.30;;
78443;SDS011;67739;52.986;8.894;2023-02-26T15:51:49;2.47;;;0.40;;
78443;SDS011;67739;52.986;8.894;2023-02-26T15:54:17;2.53;;;0.20;;
78443;SDS011;67739;52.986;8.894;2023-02-26T15:56:46;1.85;;;0.20;;
78443;SDS011;67739;52.986;8.894;2023-02-26T15:59:15;2.33;;;0.40;;
78443;SDS011;67739;52.986;8.894;2023-02-26T16:01:52;2.75;;;0.17;;
78443;SDS011;67739;52.986;8.894;2023-02-26T16:04:19;0.77;;;0.20;;
78443;SDS011;67739;52.986;8.894;2023-02-26T16:06:47;2.17;;;0.50;;
78443;SDS011;67739;52.986;8.894;2023-02-26T16:09:18;2.13;;;0.40;;
78443;SDS011;67739;52.986;8.894;2023-02-26T16:11:55;1.40;;;0.30;;
78443;SDS011;67739;52.986;8.894;2023-02-26T16:14:32;1.88;;;0.38;;
78443;SDS011;67739;52.986;8.894;2023-02-26T16:17:00;1.55;;;0.20;;
78443;SDS011;67739;52.986;8.894;2023-02-26T16:19:43;1.77;;;0.50;;
78443;SDS011;67739;52.986;8.894;2023-02-26T16:22:15;4.43;;;1.58;;
78443;SDS011;67739;52.986;8.894;2023-02-26T16:24:48;5.40;;;0.82;;
78443;SDS011;67739;52.986;8.894;2023-02-26T16:27:18;2.72;;;0.57;;
78443;SDS011;67739;52.986;8.894;2023-02-26T16:29:49;19.92;;;5.40;;
78443;SDS011;67739;52.986;8.894;2023-02-26T16:32:17;35.33;;;8.35;;
78443;SDS011;67739;52.986;8.894;2023-02-26T16:34:51;14.07;;;4.13;;
78443;SDS011;67739;52.986;8.894;2023-02-26T16:39:47;6.55;;;1.48;;
78443;SDS011;67739;52.986;8.894;2023-02-26T16:42:20;4.95;;;1.73;;
78443;SDS011;67739;52.986;8.894;2023-02-26T16:47:39;3.65;;;1.45;;
78443;SDS011;67739;52.986;8.894;2023-02-26T16:50:08;3.22;;;1.27;;
78443;SDS011;67739;52.986;8.894;2023-02-26T16:52:40;2.58;;;1.02;;
78443;SDS011;67739;52.986;8.894;2023-02-26T16:57:35;4.70;;;0.50;;
78443;SDS011;67739;52.986;8.894;2023-02-26T17:00:05;3.83;;;1.45;;
78443;SDS011;67739;52.986;8.894;2023-02-26T17:02:41;3.63;;;1.00;;
78443;SDS011;67739;52.986;8.894;2023-02-26T17:05:15;2.65;;;0.45;;
78443;SDS011;67739;52.986;8.894;2023-02-26T17:07:46;3.38;;;0.52;;
78443;SDS011;67739;52.986;8.894;2023-02-26T17:10:33;4.40;;;1.23;;
78443;SDS011;67739;52.986;8.894;2023-02-26T17:15:44;2.70;;;0.98;;
78443;SDS011;67739;52.986;8.894;2023-02-26T17:18:10;5.55;;;0.68;;
78443;SDS011;67739;52.986;8.894;2023-02-26T17:23:02;2.88;;;0.70;;
78443;SDS011;67739;52.986;8.894;2023-02-26T17:25:33;4.35;;;1.00;;
78443;SDS011;67739;52.986;8.894;2023-02-26T17:28:01;8.45;;;2.45;;
78443;SDS011;67739;52.986;8.894;2023-02-26T17:30:27;8.32;;;2.90;;
78443;SDS011;67739;52.986;8.894;2023-02-26T17:32:56;8.40;;;3.28;;
78443;SDS011;67739;52.986;8.894;2023-02-26T17:35:23;8.85;;;3.90;;
78443;SDS011;67739;52.986;8.894;2023-02-26T17:40:21;11.60;;;5.78;;
78443;SDS011;67739;52.986;8.894;2023-02-26T17:42:51;9.65;;;3.30;;
78443;SDS011;67739;52.986;8.894;2023-02-26T17:47:42;8.50;;;3.40;;
78443;SDS011;67739;52.986;8.894;2023-02-26T17:50:17;6.10;;;2.03;;
78443;SDS011;67739;52.986;8.894;2023-02-26T17:52:47;5.07;;;1.17;;
78443;SDS011;67739;52.986;8.894;2023-02-26T17:57:38;4.82;;;1.50;;
78443;SDS011;67739;52.986;8.894;2023-02-26T18:00:04;5.28;;;1.05;;
78443;SDS011;67739;52.986;8.894;2023-02-26T18:04:55;5.45;;;1.50;;
78443;SDS011;67739;52.986;8.894;2023-02-26T18:09:46;2.55;;;0.50;;
78443;SDS011;67739;52.986;8.894;2023-02-26T18:14:43;4.68;;;0.85;;
78443;SDS011;67739;52.986;8.894;2023-02-26T18:17:13;8.30;;;1.80;;
78443;SDS011;67739;52.986;8.894;2023-02-26T18:19:42;7.65;;;2.67;;
78443;SDS011;67739;52.986;8.894;2023-02-26T18:24:43;4.07;;;1.25;;
78443;SDS011;67739;52.986;8.894;2023-02-26T18:29:38;5.50;;;1.13;;
78443;SDS011;67739;52.986;8.894;2023-02-26T18:34:29;3.90;;;1.35;;
78443;SDS011;67739;52.986;8.894;2023-02-26T18:39:20;4.03;;;0.98;;
78443;SDS011;67739;52.986;8.894;2023-02-26T18:44:10;1.60;;;0.35;;
78443;SDS011;67739;52.986;8.894;2023-02-26T18:46:36;2.10;;;0.68;;
78443;SDS011;67739;52.986;8.894;2023-02-26T18:49:04;4.47;;;1.35;;
78443;SDS011;67739;52.986;8.894;2023-02-26T18:51:30;4.63;;;1.25;;
78443;SDS011;67739;52.986;8.894;2023-02-26T18:56:21;3.40;;;0.67;;
78443;SDS011;67739;52.986;8.894;2023-02-26T18:58:46;3.03;;;0.88;;
78443;SDS011;67739;52.986;8.894;2023-02-26T19:01:12;3.95;;;1.00;;
78443;SDS011;67739;52.986;8.894;2023-02-26T19:06:03;7.38;;;1.30;;
78443;SDS011;67739;52.986;8.894;2023-02-26T19:08:34;6.72;;;1.77;;
78443;SDS011;67739;52.986;8.894;2023-02-26T19:10:59;4.68;;;1.13;;
78443;SDS011;67739;52.986;8.894;2023-02-26T19:15:50;4.55;;;1.00;;
78443;SDS011;67739;52.986;8.894;2023-02-26T19:20:41;3.27;;;1.00;;
78443;SDS011;67739;52.986;8.894;2023-02-26T19:23:06;5.25;;;1.60;;
78443;SDS011;67739;52.986;8.894;2023-02-26T19:25:33;7.07;;;1.52;;
78443;SDS011;67739;52.986;8.894;2023-02-26T19:30:24;3.33;;;0.60;;
78443;SDS011;67739;52.986;8.894;2023-02-26T19:35:15;2.42;;;0.60;;
78443;SDS011;67739;52.986;8.894;2023-02-26T19:37:42;2.70;;;0.90;;
78443;SDS011;67739;52.986;8.894;2023-02-26T19:40:08;7.70;;;1.95;;
78443;SDS011;67739;52.986;8.894;2023-02-26T19:42:35;3.03;;;1.13;;
78443;SDS011;67739;52.986;8.894;2023-02-26T19:45:01;4.57;;;1.17;;
78443;SDS011;67739;52.986;8.894;2023-02-26T19:47:27;4.18;;;1.30;;
78443;SDS011;67739;52.986;8.894;2023-02-26T19:52:18;6.72;;;2.40;;
78443;SDS011;67739;52.986;8.894;2023-02-26T19:57:08;6.20;;;1.65;;
78443;SDS011;67739;52.986;8.894;2023-02-26T20:01:59;3.63;;;1.08;;
78443;SDS011;67739;52.986;8.894;2023-02-26T20:06:49;4.25;;;1.38;;
78443;SDS011;67739;52.986;8.894;2023-02-26T20:09:15;4.13;;;1.33;;
78443;SDS011;67739;52.986;8.894;2023-02-26T20:11:42;5.40;;;1.60;;
78443;SDS011;67739;52.986;8.894;2023-02-26T20:14:08;5.68;;;1.75;;
78443;SDS011;67739;52.986;8.894;2023-02-26T20:16:33;5.00;;;1.33;;
78443;SDS011;67739;52.986;8.894;2023-02-26T20:18:59;4.18;;;1.48;;
78443;SDS011;67739;52.986;8.894;2023-02-26T20:21:24;5.38;;;2.30;;
78443;SDS011;67739;52.986;8.894;2023-02-26T20:23:51;4.75;;;1.63;;
78443;SDS011;67739;52.986;8.894;2023-02-26T20:26:17;5.53;;;2.13;;
78443;SDS011;67739;52.986;8.894;2023-02-26T20:28:42;8.45;;;2.05;;
78443;SDS011;67739;52.986;8.894;2023-02-26T20:31:08;3.90;;;1.10;;
78443;SDS011;67739;52.986;8.894;2023-02-26T20:33:34;5.05;;;2.00;;
78443;SDS011;67739;52.986;8.894;2023-02-26T20:36:01;5.15;;;1.98;;
78443;SDS011;67739;52.986;8.894;2023-02-26T20:38:27;4.65;;;1.63;;
78443;SDS011;67739;52.986;8.894;2023-02-26T20:40:53;8.13;;;2.75;;
78443;SDS011;67739;52.986;8.894;2023-02-26T20:43:20;6.00;;;1.90;;
78443;SDS011;67739;52.986;8.894;2023-02-26T20:45:47;4.22;;;1.65;;
78443;SDS011;67739;52.986;8.894;2023-02-26T20:50:38;7.35;;;1.63;;
78443;SDS011;67739;52.986;8.894;2023-02-26T20:53:04;3.75;;;1.13;;
78443;SDS011;67739;52.986;8.894;2023-02-26T20:55:31;7.88;;;3.40;;
78443;SDS011;67739;52.986;8.894;2023-02-26T20:57:56;9.60;;;3.95;;
78443;SDS011;67739;52.986;8.894;2023-02-26T21:00:22;6.97;;;3.28;;
78443;SDS011;67739;52.986;8.894;2023-02-26T21:02:47;8.88;;;2.78;;
78443;SDS011;67739;52.986;8.894;2023-02-26T21:07:38;7.95;;;4.20;;
78443;SDS011;67739;52.986;8.894;2023-02-26T21:10:05;7.82;;;4.38;;
78443;SDS011;67739;52.986;8.894;2023-02-26T21:12:38;7.15;;;2.85;;
78443;SDS011;67739;52.986;8.894;2023-02-26T21:15:04;5.85;;;2.70;;
78443;SDS011;67739;52.986;8.894;2023-02-26T21:17:31;4.78;;;2.13;;
78443;SDS011;67739;52.986;8.894;2023-02-26T21:19:56;6.88;;;2.92;;
78443;SDS011;67739;52.986;8.894;2023-02-26T21:22:21;10.65;;;2.47;;
78443;SDS011;67739;52.986;8.894;2023-02-26T21:24:47;7.35;;;2.80;;
78443;SDS011;67739;52.986;8.894;2023-02-26T21:27:12;8.38;;;3.55;;
78443;SDS011;67739;52.986;8.894;2023-02-26T21:29:40;7.55;;;3.50;;
78443;SDS011;67739;52.986;8.894;2023-02-26T21:32:06;7.95;;;4.30;;
78443;SDS011;67739;52.986;8.894;2023-02-26T21:34:32;9.77;;;4.30;;
78443;SDS011;67739;52.986;8.894;2023-02-26T21:37:04;9.32;;;2.83;;
78443;SDS011;67739;52.986;8.894;2023-02-26T21:39:31;12.38;;;2.75;;
78443;SDS011;67739;52.986;8.894;2023-02-26T21:44:24;5.50;;;1.85;;
78443;SDS011;67739;52.986;8.894;2023-02-26T21:46:50;7.15;;;2.70;;
78443;SDS011;67739;52.986;8.894;2023-02-26T21:49:16;6.28;;;2.60;;
78443;SDS011;67739;52.986;8.894;2023-02-26T21:51:41;6.22;;;2.78;;
78443;SDS011;67739;52.986;8.894;2023-02-26T21:54:06;8.02;;;3.20;;
78443;SDS011;67739;52.986;8.894;2023-02-26T21:56:31;10.55;;;4.00;;
78443;SDS011;67739;52.986;8.894;2023-02-26T21:58:57;8.20;;;3.08;;
78443;SDS011;67739;52.986;8.894;2023-02-26T22:03:49;8.63;;;2.88;;
78443;SDS011;67739;52.986;8.894;2023-02-26T22:06:14;7.15;;;2.85;;
78443;SDS011;67739;52.986;8.894;2023-02-26T22:08:40;8.18;;;3.38;;
78443;SDS011;67739;52.986;8.894;2023-02-26T22:11:05;6.70;;;3.15;;
78443;SDS011;67739;52.986;8.894;2023-02-26T22:13:30;8.88;;;3.53;;
78443;SDS011;67739;52.986;8.894;2023-02-26T22:15:56;9.18;;;3.78;;
78443;SDS011;67739;52.986;8.894;2023-02-26T22:18:21;9.70;;;4.10;;
78443;SDS011;67739;52.986;8.894;2023-02-26T22:20:46;9.45;;;5.07;;
78443;SDS011;67739;52.986;8.894;2023-02-26T22:23:12;9.50;;;4.40;;
78443;SDS011;67739;52.986;8.894;2023-02-26T22:25:37;9.43;;;3.78;;
78443;SDS011;67739;52.986;8.894;2023-02-26T22:28:03;8.45;;;3.55;;
78443;SDS011;67739;52.986;8.894;2023-02-26T22:30:28;7.80;;;3.10;;
78443;SDS011;67739;52.986;8.894;2023-02-26T22:32:54;9.05;;;3.53;;
78443;SDS011;67739;52.986;8.894;2023-02-26T22:35:19;7.93;;;3.45;;
78443;SDS011;67739;52.986;8.894;2023-02-26T22:37:44;7.07;;;3.42;;
78443;SDS011;67739;52.986;8.894;2023-02-26T22:40:10;7.00;;;2.97;;
78443;SDS011;67739;52.986;8.894;2023-02-26T22:42:37;10.13;;;3.75;;
78443;SDS011;67739;52.986;8.894;2023-02-26T22:45:03;7.68;;;3.35;;
78443;SDS011;67739;52.986;8.894;2023-02-26T22:47:30;10.35;;;4.10;;
78443;SDS011;67739;52.986;8.894;2023-02-26T22:49:56;7.82;;;3.40;;
78443;SDS011;67739;52.986;8.894;2023-02-26T22:52:21;5.80;;;3.05;;
78443;SDS011;67739;52.986;8.894;2023-02-26T22:54:46;9.57;;;4.63;;
78443;SDS011;67739;52.986;8.894;2023-02-26T22:57:12;7.70;;;3.92;;
78443;SDS011;67739;52.986;8.894;2023-02-26T22:59:38;7.35;;;3.03;;
78443;SDS011;67739;52.986;8.894;2023-02-26T23:02:03;8.30;;;3.00;;
78443;SDS011;67739;52.986;8.894;2023-02-26T23:04:28;6.72;;;2.40;;
78443;SDS011;67739;52.986;8.894;2023-02-26T23:06:54;7.00;;;3.40;;
78443;SDS011;67739;52.986;8.894;2023-02-26T23:09:19;7.82;;;3.30;;
78443;SDS011;67739;52.986;8.894;2023-02-26T23:11:45;7.65;;;3.00;;
78443;SDS011;67739;52.986;8.894;2023-02-26T23:14:10;7.63;;;3.30;;
78443;SDS011;67739;52.986;8.894;2023-02-26T23:16:36;9.93;;;3.50;;
78443;SDS011;67739;52.986;8.894;2023-02-26T23:19:01;10.40;;;4.32;;
78443;SDS011;67739;52.986;8.894;2023-02-26T23:21:27;7.38;;;3.25;;
78443;SDS011;67739;52.986;8.894;2023-02-26T23:23:54;8.32;;;3.10;;
78443;SDS011;67739;52.986;8.894;2023-02-26T23:26:20;10.15;;;3.25;;
78443;SDS011;67739;52.986;8.894;2023-02-26T23:28:45;10.65;;;4.95;;
78443;SDS011;67739;52.986;8.894;2023-02-26T23:31:11;9.88;;;3.70;;
78443;SDS011;67739;52.986;8.894;2023-02-26T23:33:36;10.15;;;4.57;;
78443;SDS011;67739;52.986;8.894;2023-02-26T23:36:01;7.63;;;4.05;;
78443;SDS011;67739;52.986;8.894;2023-02-26T23:38:27;8.57;;;3.72;;
78443;SDS011;67739;52.986;8.894;2023-02-26T23:40:52;7.25;;;4.25;;
78443;SDS011;67739;52.986;8.894;2023-02-26T23:43:17;8.25;;;4.30;;
78443;SDS011;67739;52.986;8.894;2023-02-26T23:45:43;10.35;;;4.30;;
78443;SDS011;67739;52.986;8.894;2023-02-26T23:48:08;8.98;;;3.92;;
78443;SDS011;67739;52.986;8.894;2023-02-26T23:50:34;9.68;;;3.50;;
78443;SDS011;67739;52.986;8.894;2023-02-26T23:52:59;11.35;;;4.32;;
78443;SDS011;67739;52.986;8.894;2023-02-26T23:55:24;9.82;;;3.35;;
78443;SDS011;67739;52.986;8.894;2023-02-26T23:57:50;9.32;;;3.03;;
